createdAt,value
2023-05-19T00:00:58.662Z,63.28
2023-05-19T00:03:25.746Z,63.55
2023-05-19T00:05:53.903Z,63.13
2023-05-19T00:08:23.231Z,63.37
2023-05-19T00:10:50.281Z,63.41
2023-05-19T00:13:17.477Z,63.30
2023-05-19T00:15:44.675Z,63.38
2023-05-19T00:18:11.335Z,63.43
2023-05-19T00:20:38.043Z,63.27
2023-05-19T00:23:04.733Z,63.14
2023-05-19T00:25:32.661Z,63.15
2023-05-19T00:27:59.258Z,62.95
2023-05-19T00:30:25.838Z,62.99
2023-05-19T00:32:52.501Z,63.14
2023-05-19T00:35:19.983Z,63.06
2023-05-19T00:37:46.541Z,62.70
2023-05-19T00:40:13.441Z,62.99
2023-05-19T00:42:41.783Z,62.83
2023-05-19T00:45:09.016Z,62.74
2023-05-19T00:47:35.768Z,62.89
2023-05-19T00:50:06.008Z,62.94
2023-05-19T00:52:32.672Z,62.74
2023-05-19T00:54:59.781Z,62.69
2023-05-19T00:57:26.355Z,62.28
2023-05-19T00:59:54.529Z,62.64
2023-05-19T01:02:21.275Z,62.95
2023-05-19T01:04:48.057Z,62.82
2023-05-19T01:07:15.155Z,62.97
2023-05-19T01:09:41.905Z,62.87
2023-05-19T01:12:08.966Z,63.25
2023-05-19T01:14:35.733Z,63.42
2023-05-19T01:17:08.136Z,63.42
2023-05-19T01:19:55.896Z,63.29
2023-05-19T01:22:38.672Z,63.33
2023-05-19T01:25:36.684Z,63.67
2023-05-19T01:28:26.331Z,63.56
2023-05-19T01:30:55.963Z,63.64
2023-05-19T01:33:24.126Z,63.74
2023-05-19T01:35:51.475Z,63.97
2023-05-19T01:38:20.760Z,63.70
2023-05-19T01:40:49.354Z,63.90
2023-05-19T01:43:18.533Z,63.86
2023-05-19T01:45:46.056Z,63.87
2023-05-19T01:48:14.816Z,64.03
2023-05-19T01:50:42.194Z,64.03
2023-05-19T01:53:08.809Z,63.98
2023-05-19T01:55:36.408Z,63.83
2023-05-19T01:58:10.178Z,63.96
2023-05-19T02:00:51.343Z,64.07
2023-05-19T02:03:41.446Z,64.09
2023-05-19T02:06:22.666Z,64.29
2023-05-19T02:08:57.148Z,64.43
2023-05-19T02:11:30.604Z,64.89
2023-05-19T02:13:59.130Z,64.67
2023-05-19T02:16:28.583Z,64.87
2023-05-19T02:18:56.797Z,65.12
2023-05-19T02:21:23.494Z,65.12
2023-05-19T02:23:50.596Z,65.32
2023-05-19T02:26:17.228Z,65.96
2023-05-19T02:28:43.781Z,65.40
2023-05-19T02:31:10.372Z,65.76
2023-05-19T02:33:37.238Z,65.95
2023-05-19T02:36:06.156Z,65.92
2023-05-19T02:38:32.751Z,65.83
2023-05-19T02:40:59.341Z,66.71
2023-05-19T02:43:25.912Z,66.81
2023-05-19T02:45:52.598Z,67.28
2023-05-19T02:48:19.325Z,67.05
2023-05-19T02:50:45.902Z,67.36
2023-05-19T02:53:13.790Z,67.59
2023-05-19T02:55:40.377Z,67.64
2023-05-19T02:58:06.959Z,67.95
2023-05-19T03:00:33.750Z,67.85
2023-05-19T03:03:00.572Z,67.71
2023-05-19T03:05:27.246Z,68.40
2023-05-19T03:07:53.824Z,68.28
2023-05-19T03:10:21.808Z,68.43
2023-05-19T03:12:48.377Z,68.61
2023-05-19T03:15:14.985Z,68.42
2023-05-19T03:17:41.716Z,68.41
2023-05-19T03:20:09.329Z,68.59
2023-05-19T03:22:35.870Z,68.76
2023-05-19T03:25:02.517Z,68.60
2023-05-19T03:27:30.652Z,68.69
2023-05-19T03:29:57.205Z,68.74
2023-05-19T03:32:24.072Z,68.79
2023-05-19T03:34:50.755Z,68.69
2023-05-19T03:37:17.438Z,68.79
2023-05-19T03:39:44.092Z,68.95
2023-05-19T03:42:10.710Z,69.00
2023-05-19T03:44:38.680Z,69.12
2023-05-19T03:47:05.875Z,68.92
2023-05-19T03:49:32.507Z,69.14
2023-05-19T03:51:59.120Z,69.21
2023-05-19T03:54:25.789Z,68.79
2023-05-19T03:56:52.408Z,68.75
2023-05-19T03:59:19.002Z,68.02
2023-05-19T04:01:47.155Z,67.12
2023-05-19T04:04:13.776Z,65.92
2023-05-19T04:06:40.370Z,64.82
2023-05-19T04:09:12.002Z,64.38
2023-05-19T04:11:38.582Z,64.31
2023-05-19T04:14:05.195Z,63.85
2023-05-19T04:16:32.271Z,63.48
2023-05-19T04:19:00.525Z,63.23
2023-05-19T04:21:27.524Z,63.21
2023-05-19T04:23:54.134Z,63.06
2023-05-19T04:26:20.873Z,63.30
2023-05-19T04:28:47.813Z,63.00
2023-05-19T04:31:14.495Z,62.84
2023-05-19T04:33:41.369Z,62.68
2023-05-19T04:36:09.862Z,62.12
2023-05-19T04:38:36.796Z,61.09
2023-05-19T04:41:03.444Z,61.12
2023-05-19T04:43:30.095Z,61.00
2023-05-19T04:45:56.960Z,60.93
2023-05-19T04:48:23.598Z,60.92
2023-05-19T04:50:50.394Z,60.83
2023-05-19T04:53:18.371Z,60.38
2023-05-19T04:55:44.964Z,60.20
2023-05-19T04:58:11.525Z,60.46
2023-05-19T05:00:38.061Z,59.84
2023-05-19T05:03:04.721Z,59.83
2023-05-19T05:05:31.517Z,59.69
2023-05-19T05:07:58.628Z,59.32
2023-05-19T05:10:26.718Z,59.16
2023-05-19T05:12:53.889Z,58.44
2023-05-19T05:15:22.143Z,58.69
2023-05-19T05:17:49.302Z,59.18
2023-05-19T05:20:16.790Z,59.56
2023-05-19T05:22:43.882Z,58.37
2023-05-19T05:25:12.207Z,58.02
2023-05-19T05:27:40.481Z,58.44
2023-05-19T05:30:08.347Z,58.58
2023-05-19T05:32:35.450Z,58.44
2023-05-19T05:35:02.280Z,58.46
2023-05-19T05:37:30.508Z,59.13
2023-05-19T05:39:57.171Z,58.40
2023-05-19T05:42:23.809Z,57.09
2023-05-19T05:44:52.017Z,56.61
2023-05-19T05:47:19.187Z,56.62
2023-05-19T05:49:46.440Z,56.67
2023-05-19T05:52:13.133Z,56.93
2023-05-19T05:54:40.476Z,56.16
2023-05-19T05:57:08.160Z,55.94
2023-05-19T05:59:34.734Z,56.58
2023-05-19T06:02:04.102Z,55.12
2023-05-19T06:04:30.731Z,55.99
2023-05-19T06:06:57.328Z,56.26
2023-05-19T06:09:24.544Z,55.23
2023-05-19T06:11:51.278Z,55.86
2023-05-19T06:14:17.876Z,54.43
2023-05-19T06:16:44.432Z,54.79
2023-05-19T06:19:12.717Z,54.57
2023-05-19T06:21:39.364Z,55.18
2023-05-19T06:24:06.560Z,53.39
2023-05-19T06:26:33.271Z,54.04
2023-05-19T06:28:59.867Z,53.18
2023-05-19T06:31:29.067Z,53.29
2023-05-19T06:33:55.699Z,52.22
2023-05-19T06:36:23.781Z,53.57
2023-05-19T06:38:50.366Z,52.63
2023-05-19T06:41:17.018Z,51.68
2023-05-19T06:43:43.659Z,52.49
2023-05-19T06:46:10.225Z,52.65
2023-05-19T06:48:36.795Z,53.25
2023-05-19T06:51:03.978Z,52.77
2023-05-19T06:53:31.897Z,54.05
2023-05-19T06:55:59.793Z,52.98
2023-05-19T06:58:27.107Z,52.34
2023-05-19T07:00:53.919Z,51.93
2023-05-19T07:03:20.686Z,50.95
2023-05-19T07:05:50.227Z,52.34
2023-05-19T07:08:16.777Z,51.20
2023-05-19T07:10:44.701Z,49.98
2023-05-19T07:13:11.313Z,49.37
2023-05-19T07:15:37.906Z,49.53
2023-05-19T07:18:04.752Z,49.31
2023-05-19T07:20:31.629Z,49.83
2023-05-19T07:22:58.559Z,48.52
2023-05-19T07:25:25.202Z,47.49
2023-05-19T07:27:53.204Z,48.00
2023-05-19T07:30:20.315Z,48.22
2023-05-19T07:32:46.980Z,46.94
2023-05-19T07:35:14.020Z,47.01
2023-05-19T07:37:40.635Z,47.12
2023-05-19T07:40:08.370Z,47.65
2023-05-19T07:42:35.091Z,47.58
2023-05-19T07:45:03.273Z,47.21
2023-05-19T07:47:30.750Z,46.74
2023-05-19T07:49:57.367Z,47.27
2023-05-19T07:52:23.976Z,47.63
2023-05-19T07:54:50.615Z,46.85
2023-05-19T07:57:17.283Z,46.08
2023-05-19T07:59:43.987Z,46.74
2023-05-19T08:02:12.583Z,46.57
2023-05-19T08:04:39.484Z,45.83
2023-05-19T08:07:06.147Z,45.81
2023-05-19T08:09:32.814Z,46.52
2023-05-19T08:11:59.460Z,45.45
2023-05-19T08:14:26.070Z,44.78
2023-05-19T08:16:52.672Z,45.80
2023-05-19T08:19:20.817Z,45.80
2023-05-19T08:21:48.810Z,45.27
2023-05-19T08:24:16.543Z,45.88
2023-05-19T08:26:44.080Z,44.91
2023-05-19T08:29:10.732Z,45.73
2023-05-19T08:31:37.447Z,43.47
2023-05-19T08:34:04.084Z,45.38
2023-05-19T08:36:32.029Z,42.79
2023-05-19T08:38:58.593Z,44.08
2023-05-19T08:41:25.166Z,44.98
2023-05-19T08:43:51.873Z,44.44
2023-05-19T08:46:21.503Z,43.46
2023-05-19T08:48:48.468Z,45.48
2023-05-19T08:51:32.504Z,43.82
2023-05-19T08:54:14.507Z,44.72
2023-05-19T08:56:43.470Z,44.57
2023-05-19T08:59:11.302Z,45.21
2023-05-19T09:01:39.087Z,42.83
2023-05-19T09:04:06.285Z,41.98
2023-05-19T09:06:33.263Z,41.65
2023-05-19T09:09:01.574Z,43.20
2023-05-19T09:11:28.243Z,44.11
2023-05-19T09:13:54.966Z,42.91
2023-05-19T09:16:21.964Z,42.72
2023-05-19T09:18:55.224Z,43.78
2023-05-19T09:21:27.826Z,43.83
2023-05-19T09:23:54.457Z,42.90
2023-05-19T09:26:22.580Z,41.65
2023-05-19T09:28:49.441Z,41.95
2023-05-19T09:31:16.097Z,41.40
2023-05-19T09:33:45.587Z,42.22
2023-05-19T09:36:12.509Z,40.33
2023-05-19T09:38:39.225Z,41.06
2023-05-19T09:41:07.213Z,40.93
2023-05-19T09:43:35.750Z,40.36
2023-05-19T09:46:04.656Z,39.54
2023-05-19T09:48:31.471Z,40.15
2023-05-19T09:51:00.169Z,39.25
2023-05-19T09:53:29.264Z,40.25
2023-05-19T09:55:56.758Z,39.12
2023-05-19T09:58:23.693Z,39.68
2023-05-19T10:00:53.302Z,39.13
2023-05-19T10:03:20.744Z,39.19
2023-05-19T10:05:48.535Z,37.92
2023-05-19T10:08:17.216Z,39.01
2023-05-19T10:10:45.991Z,39.32
2023-05-19T10:13:12.909Z,40.94
2023-05-19T10:15:57.204Z,39.93
2023-05-19T10:18:27.543Z,38.51
2023-05-19T10:20:54.949Z,38.19
2023-05-19T10:23:21.655Z,38.51
2023-05-19T10:25:49.444Z,39.75
2023-05-19T10:28:18.457Z,39.26
2023-05-19T10:30:48.834Z,38.66
2023-05-19T10:33:17.640Z,38.43
2023-05-19T10:36:19.862Z,37.22
2023-05-19T10:38:53.286Z,38.37
2023-05-19T10:41:34.706Z,39.48
2023-05-19T10:44:09.485Z,38.97
2023-05-19T10:46:36.303Z,39.02
2023-05-19T10:49:02.980Z,38.22
2023-05-19T10:51:32.443Z,38.56
2023-05-19T10:54:01.860Z,38.53
2023-05-19T10:56:29.498Z,38.68
2023-05-19T10:58:56.147Z,39.18
2023-05-19T11:01:22.790Z,39.03
2023-05-19T11:03:50.912Z,38.10
2023-05-19T11:06:25.067Z,37.28
2023-05-19T11:08:58.184Z,38.11
2023-05-19T11:11:24.816Z,38.70
2023-05-19T11:13:52.484Z,37.93
2023-05-19T11:16:19.988Z,37.62
2023-05-19T11:18:48.873Z,38.32
2023-05-19T11:21:15.550Z,36.45
2023-05-19T11:23:42.323Z,37.00
2023-05-19T11:26:10.312Z,36.15
2023-05-19T11:28:37.194Z,36.21
2023-05-19T11:31:05.452Z,35.88
2023-05-19T11:33:32.427Z,36.82
2023-05-19T11:35:59.249Z,37.07
2023-05-19T11:38:26.538Z,37.46
2023-05-19T11:40:54.089Z,37.62
2023-05-19T11:43:23.939Z,38.03
2023-05-19T11:45:50.697Z,37.27
2023-05-19T11:48:21.032Z,36.73
2023-05-19T11:50:47.799Z,37.54
2023-05-19T11:53:15.508Z,37.77
2023-05-19T11:55:42.771Z,38.92
2023-05-19T11:58:09.367Z,39.32
2023-05-19T12:00:40.202Z,37.96
2023-05-19T12:03:08.873Z,36.40
2023-05-19T12:05:41.838Z,35.82
2023-05-19T12:08:09.852Z,36.37
2023-05-19T12:10:38.418Z,36.35
2023-05-19T12:13:06.105Z,37.70
2023-05-19T12:15:32.926Z,38.75
2023-05-19T12:18:02.487Z,37.44
2023-05-19T12:20:30.559Z,36.66
2023-05-19T12:22:57.785Z,36.19
2023-05-19T12:25:24.585Z,36.13
2023-05-19T12:27:51.491Z,37.08
2023-05-19T12:30:18.477Z,37.17
2023-05-19T12:32:46.489Z,34.90
2023-05-19T12:35:15.686Z,36.38
2023-05-19T12:37:42.729Z,34.98
2023-05-19T12:40:14.851Z,36.77
2023-05-19T12:42:44.640Z,37.01
2023-05-19T12:45:11.228Z,36.07
2023-05-19T12:47:38.007Z,34.82
2023-05-19T12:50:06.788Z,35.83
2023-05-19T12:52:42.480Z,34.20
2023-05-19T12:55:09.970Z,34.58
2023-05-19T12:57:38.911Z,33.08
2023-05-19T13:00:07.751Z,33.66
2023-05-19T13:02:35.381Z,33.38
2023-05-19T13:05:02.410Z,33.97
2023-05-19T13:07:29.000Z,34.36
2023-05-19T13:09:57.380Z,35.46
2023-05-19T13:12:24.370Z,36.14
2023-05-19T13:14:51.645Z,33.50
2023-05-19T13:17:19.591Z,34.54
2023-05-19T13:19:46.325Z,34.92
2023-05-19T13:22:12.933Z,34.08
2023-05-19T13:24:39.530Z,33.99
2023-05-19T13:27:07.601Z,34.30
2023-05-19T13:29:34.164Z,34.27
2023-05-19T13:32:01.461Z,35.30
2023-05-19T13:34:28.294Z,34.40
2023-05-19T13:36:54.949Z,35.11
2023-05-19T13:39:21.611Z,35.92
2023-05-19T13:41:48.205Z,35.83
2023-05-19T13:44:16.262Z,36.45
2023-05-19T13:46:46.037Z,35.89
2023-05-19T13:49:13.509Z,35.86
2023-05-19T13:51:42.924Z,36.02
2023-05-19T13:54:09.538Z,35.47
2023-05-19T13:56:36.558Z,36.33
2023-05-19T13:59:04.056Z,36.20
2023-05-19T14:01:32.224Z,35.77
2023-05-19T14:03:58.922Z,37.34
2023-05-19T14:06:25.671Z,36.50
2023-05-19T14:08:52.417Z,37.00
2023-05-19T14:11:19.814Z,36.56
2023-05-19T14:13:50.035Z,37.02
2023-05-19T14:16:18.379Z,36.84
2023-05-19T14:18:46.417Z,36.40
2023-05-19T14:21:13.092Z,36.56
2023-05-19T14:23:39.914Z,37.82
2023-05-19T14:26:06.749Z,37.24
2023-05-19T14:28:33.348Z,38.14
2023-05-19T14:31:00.244Z,37.68
2023-05-19T14:33:26.993Z,38.02
2023-05-19T14:35:55.083Z,38.36
2023-05-19T14:38:21.841Z,38.35
2023-05-19T14:40:48.474Z,38.57
2023-05-19T14:43:15.108Z,37.75
2023-05-19T14:45:41.779Z,38.70
2023-05-19T14:48:08.399Z,37.87
2023-05-19T14:50:35.230Z,38.33
2023-05-19T14:53:03.269Z,37.14
2023-05-19T14:55:29.833Z,38.14
2023-05-19T14:57:56.572Z,38.78
2023-05-19T15:00:23.363Z,37.74
2023-05-19T15:02:50.009Z,37.82
2023-05-19T15:05:16.909Z,38.49
2023-05-19T15:07:43.501Z,38.47
2023-05-19T15:10:15.525Z,38.20
2023-05-19T15:12:42.284Z,39.19
2023-05-19T15:15:09.747Z,38.41
2023-05-19T15:17:36.750Z,38.45
2023-05-19T15:20:03.832Z,38.91
2023-05-19T15:22:30.444Z,39.36
2023-05-19T15:24:57.060Z,40.00
2023-05-19T15:27:25.147Z,40.30
2023-05-19T15:29:51.704Z,39.47
2023-05-19T15:32:18.355Z,38.34
2023-05-19T15:34:44.937Z,38.50
2023-05-19T15:37:11.510Z,40.14
2023-05-19T15:39:38.328Z,38.79
2023-05-19T15:42:05.204Z,38.45
2023-05-19T15:44:33.150Z,39.38
2023-05-19T15:46:59.973Z,38.69
2023-05-19T15:49:26.509Z,39.65
2023-05-19T15:51:53.096Z,39.69
2023-05-19T15:54:19.807Z,38.78
2023-05-19T15:56:46.435Z,39.09
2023-05-19T15:59:13.075Z,39.22
2023-05-19T16:01:41.386Z,38.71
2023-05-19T16:04:08.040Z,38.26
2023-05-19T16:06:34.651Z,38.74
2023-05-19T16:09:01.309Z,38.89
2023-05-19T16:11:28.003Z,38.75
2023-05-19T16:13:54.614Z,38.94
2023-05-19T16:16:21.282Z,39.29
2023-05-19T16:18:49.287Z,38.98
2023-05-19T16:21:15.910Z,38.79
2023-05-19T16:23:42.843Z,38.14
2023-05-19T16:26:09.393Z,38.85
2023-05-19T16:28:35.997Z,38.77
2023-05-19T16:31:02.630Z,39.19
2023-05-19T16:33:29.388Z,39.07
2023-05-19T16:35:58.002Z,39.45
2023-05-19T16:38:24.733Z,39.81
2023-05-19T16:40:51.330Z,39.97
2023-05-19T16:43:17.897Z,39.89
2023-05-19T16:45:44.620Z,40.32
2023-05-19T16:48:11.302Z,41.09
2023-05-19T16:50:38.156Z,41.21
2023-05-19T16:53:06.300Z,40.82
2023-05-19T16:55:32.852Z,41.33
2023-05-19T16:57:59.639Z,41.12
2023-05-19T17:00:26.250Z,40.84
2023-05-19T17:02:53.138Z,40.50
2023-05-19T17:05:19.823Z,41.36
2023-05-19T17:07:46.585Z,42.45
2023-05-19T17:10:14.524Z,41.80
2023-05-19T17:12:41.182Z,42.73
2023-05-19T17:15:08.458Z,42.78
2023-05-19T17:17:35.093Z,42.84
2023-05-19T17:20:01.791Z,43.75
2023-05-19T17:22:30.125Z,42.46
2023-05-19T17:24:57.008Z,42.95
2023-05-19T17:27:25.199Z,42.48
2023-05-19T17:29:51.802Z,43.23
2023-05-19T17:32:18.512Z,43.95
2023-05-19T17:34:45.227Z,42.62
2023-05-19T17:37:11.837Z,43.30
2023-05-19T17:39:38.504Z,44.02
2023-05-19T17:42:05.326Z,43.17
2023-05-19T17:44:33.319Z,43.56
2023-05-19T17:46:59.957Z,44.28
2023-05-19T17:49:26.750Z,44.40
2023-05-19T17:51:53.841Z,44.36
2023-05-19T17:54:20.918Z,43.97
2023-05-19T17:56:50.008Z,44.06
2023-05-19T17:59:17.041Z,44.16
2023-05-19T18:01:45.793Z,44.46
2023-05-19T18:04:14.625Z,44.57
2023-05-19T18:06:44.959Z,44.94
2023-05-19T18:09:13.682Z,45.13
2023-05-19T18:11:40.296Z,44.98
2023-05-19T18:14:06.979Z,45.30
2023-05-19T18:16:33.696Z,45.02
2023-05-19T18:19:02.906Z,45.99
2023-05-19T18:21:29.576Z,45.76
2023-05-19T18:23:56.103Z,45.65
2023-05-19T18:26:22.824Z,45.90
2023-05-19T18:28:49.406Z,46.13
2023-05-19T18:31:16.011Z,46.10
2023-05-19T18:33:43.706Z,45.98
2023-05-19T18:36:11.735Z,46.29
2023-05-19T18:38:38.315Z,46.39
2023-05-19T18:41:06.643Z,46.74
2023-05-19T18:43:33.380Z,46.87
2023-05-19T18:46:00.065Z,46.81
2023-05-19T18:48:26.819Z,47.27
2023-05-19T18:50:53.448Z,47.02
2023-05-19T18:53:22.138Z,47.30
2023-05-19T18:55:48.749Z,47.61
2023-05-19T18:58:15.349Z,47.51
2023-05-19T19:00:42.012Z,47.78
2023-05-19T19:03:08.619Z,47.55
2023-05-19T19:05:35.261Z,47.71
2023-05-19T19:08:01.907Z,47.94
2023-05-19T19:10:29.901Z,47.93
2023-05-19T19:12:56.586Z,48.24
2023-05-19T19:15:23.192Z,48.33
2023-05-19T19:17:49.835Z,48.85
2023-05-19T19:20:16.643Z,48.62
2023-05-19T19:22:43.248Z,48.95
2023-05-19T19:25:10.015Z,48.90
2023-05-19T19:27:38.290Z,48.80
2023-05-19T19:30:06.101Z,49.25
2023-05-19T19:32:32.757Z,49.51
2023-05-19T19:34:59.409Z,49.63
2023-05-19T19:37:26.044Z,49.73
2023-05-19T19:39:52.732Z,50.06
2023-05-19T19:42:19.308Z,50.56
2023-05-19T19:44:47.328Z,50.81
2023-05-19T19:47:13.929Z,50.89
2023-05-19T19:49:40.501Z,51.20
2023-05-19T19:52:07.206Z,51.21
2023-05-19T19:54:33.808Z,51.67
2023-05-19T19:57:00.417Z,51.41
2023-05-19T19:59:27.113Z,51.95
2023-05-19T20:01:55.115Z,51.71
2023-05-19T20:04:21.825Z,51.82
2023-05-19T20:06:48.565Z,51.83
2023-05-19T20:09:15.194Z,51.91
2023-05-19T20:11:41.880Z,52.55
2023-05-19T20:14:08.427Z,52.41
2023-05-19T20:16:35.320Z,52.33
2023-05-19T20:19:03.374Z,52.55
2023-05-19T20:21:29.969Z,52.73
2023-05-19T20:23:56.522Z,52.84
2023-05-19T20:26:23.118Z,52.88
2023-05-19T20:28:49.712Z,53.14
2023-05-19T20:31:16.263Z,53.15
2023-05-19T20:33:42.926Z,53.35
2023-05-19T20:36:10.913Z,53.45
2023-05-19T20:38:37.549Z,53.74
2023-05-19T20:41:04.157Z,53.73
2023-05-19T20:43:31.274Z,54.07
2023-05-19T20:45:57.880Z,54.23
2023-05-19T20:48:24.528Z,54.35
2023-05-19T20:50:51.171Z,54.10
2023-05-19T20:53:19.807Z,54.26
2023-05-19T20:55:46.529Z,54.71
2023-05-19T20:58:13.737Z,54.75
2023-05-19T21:00:40.383Z,54.92
2023-05-19T21:03:07.245Z,54.91
2023-05-19T21:05:34.055Z,55.37
2023-05-19T21:08:00.859Z,55.42
2023-05-19T21:10:28.925Z,55.59
2023-05-19T21:12:55.565Z,55.53
2023-05-19T21:15:22.335Z,55.76
2023-05-19T21:17:49.227Z,55.94
2023-05-19T21:20:15.865Z,56.12
2023-05-19T21:22:42.510Z,56.40
2023-05-19T21:25:09.405Z,56.30
2023-05-19T21:27:37.430Z,56.98
2023-05-19T21:30:04.447Z,57.05
2023-05-19T21:32:31.191Z,57.18
2023-05-19T21:34:57.876Z,57.29
2023-05-19T21:37:24.472Z,57.52
2023-05-19T21:39:51.104Z,57.42
2023-05-19T21:42:17.742Z,57.95
2023-05-19T21:44:45.684Z,57.93
2023-05-19T21:47:12.260Z,58.17
2023-05-19T21:49:38.867Z,58.12
2023-05-19T21:52:06.449Z,58.37
2023-05-19T21:54:33.056Z,58.49
2023-05-19T21:57:00.078Z,58.91
2023-05-19T21:59:26.669Z,58.66
2023-05-19T22:01:54.661Z,58.80
2023-05-19T22:04:22.451Z,59.06
2023-05-19T22:06:49.119Z,59.54
2023-05-19T22:09:15.777Z,59.26
2023-05-19T22:11:42.405Z,59.53
2023-05-19T22:14:09.009Z,59.96
2023-05-19T22:16:35.665Z,59.98
2023-05-19T22:19:03.755Z,60.05
2023-05-19T22:21:30.346Z,60.21
2023-05-19T22:23:56.942Z,60.71
2023-05-19T22:26:23.507Z,60.58
2023-05-19T22:28:50.177Z,60.19
2023-05-19T22:31:16.854Z,60.63
2023-05-19T22:33:43.536Z,60.97
2023-05-19T22:36:11.451Z,60.88
2023-05-19T22:38:38.011Z,61.08
2023-05-19T22:41:04.672Z,61.38
2023-05-19T22:43:31.367Z,61.35
2023-05-19T22:45:57.982Z,61.40
2023-05-19T22:48:24.719Z,61.36
2023-05-19T22:50:51.376Z,61.80
2023-05-19T22:53:19.273Z,62.39
2023-05-19T22:55:45.923Z,62.39
2023-05-19T22:58:12.568Z,62.79
2023-05-19T23:00:39.139Z,62.82
2023-05-19T23:03:05.823Z,62.77
2023-05-19T23:05:32.653Z,62.99
2023-05-19T23:07:59.350Z,62.85
2023-05-19T23:10:27.339Z,62.81
2023-05-19T23:12:53.932Z,62.93
2023-05-19T23:15:20.493Z,63.32
2023-05-19T23:17:47.170Z,63.35
2023-05-19T23:20:13.750Z,63.33
2023-05-19T23:22:40.339Z,63.25
2023-05-19T23:25:07.739Z,63.43
2023-05-19T23:27:36.360Z,63.50
2023-05-19T23:30:03.338Z,63.42
2023-05-19T23:32:30.025Z,63.65
2023-05-19T23:34:56.759Z,63.99
2023-05-19T23:37:23.291Z,64.37
2023-05-19T23:39:49.901Z,64.48
2023-05-19T23:42:16.583Z,64.67
2023-05-19T23:44:44.579Z,64.85
2023-05-19T23:47:11.191Z,65.07
2023-05-19T23:49:37.794Z,65.30
2023-05-19T23:52:04.664Z,65.39
2023-05-19T23:54:31.285Z,65.45
2023-05-19T23:56:57.914Z,65.92
2023-05-19T23:59:24.487Z,65.97
